Flight Track Log - Related Links

Times and Time Zones

All times are in EDT time to prevent confusion due to time zone crossing. See the PRY5 flight status page for this flight to view local times or setup timezone preferences in your user account.

Time Position Orientation Groundspeed Altitude Reporting Facility
EDT Latitude Longitude Course Direction KTS MPH feet Rate Location/Type
Thu 04:58:22 PM 40.7675 -81.8192 220° Southwest 132 152 3,000  Level Indianapolis Center
Thu 04:59:24 PM 40.7361 -81.8536 220° Southwest 144 166 3,900 968 Climbing Indianapolis Center
Thu 05:00:26 PM 40.7058 -81.8894 222° Southwest 131 151 5,000 968 Climbing Indianapolis Center
Thu 05:01:28 PM 40.6833 -81.9247 230° Southwest 124 143 5,900 871 Climbing Indianapolis Center
Thu 05:02:30 PM 40.6578 -81.9606 227° Southwest 130 150 6,800 823 Climbing Indianapolis Center
Thu 05:03:32 PM 40.6308 -81.9931 222° Southwest 132 152 7,600 629 Climbing Indianapolis Center
Thu 05:04:34 PM 40.6003 -82.0250 218° Southwest 138 159 8,100 248 Climbing Indianapolis Center
Thu 05:05:33 PM 40.5683 -82.0817 233° Southwest 181 208 8,100 -63 Level Indianapolis Center
Thu 05:06:10 PM 40.5553 -82.1128 241° Southwest 176 203 8,000 -61 Descending Indianapolis Center
Thu 05:07:11 PM 40.5297 -82.1642 237° Southwest 162 186 8,000  Level Indianapolis Center
Thu 05:08:12 PM 40.5044 -82.2125 235° Southwest 158 182 8,000  Level Indianapolis Center
Thu 05:08:42 PM 40.4919 -82.2339 232° Southwest 158 182 8,000  Level Indianapolis Center
Thu 05:09:44 PM 40.4669 -82.2814 235° Southwest 157 181 8,000  Level Indianapolis Center
Thu 05:10:14 PM 40.4539 -82.3092 238° Southwest 158 182 8,000  Level Indianapolis Center
Thu 05:10:46 PM 40.4425 -82.3297 234° Southwest 157 181 8,000  Level Indianapolis Center
Thu 05:11:48 PM 40.4192 -82.3803 239° Southwest 159 183 8,000  Level Indianapolis Center
Thu 05:12:50 PM 40.3961 -82.4269 237° Southwest 153 176 8,000  Level Indianapolis Center
Thu 05:13:53 PM 40.3742 -82.4731 238° Southwest 149 171 8,000  Level Indianapolis Center
Thu 05:14:55 PM 40.3511 -82.5225 239° Southwest 156 180 8,000 48 Level Indianapolis Center
Thu 05:15:57 PM 40.3203 -82.5775 234° Southwest 159 183 8,100  Climbing Indianapolis Center
Thu 05:16:59 PM 40.2886 -82.6208 226° Southwest 163 188 8,000 -48 Descending Indianapolis Center
Thu 05:18:01 PM 40.2528 -82.6589 219° Southwest 164 189 8,000  Level Indianapolis Center
Thu 05:19:03 PM 40.2153 -82.6958 217° Southwest 162 186 8,000  Level Indianapolis Center
Thu 05:20:05 PM 40.1811 -82.7361 222° Southwest 163 188 8,000 48 Level Indianapolis Center
Thu 05:21:07 PM 40.1492 -82.7761 224° Southwest 157 181 8,100 48 Climbing Indianapolis Center
Thu 05:22:09 PM 40.1144 -82.8150 221° Southwest 162 186 8,100 -48 Level Indianapolis Center
Thu 05:23:11 PM 40.0797 -82.8536 220° Southwest 162 186 8,000  Descending Indianapolis Center
Thu 05:24:07 PM 40.0433 -82.8947 221° Southwest 160 184 8,100  Climbing Indianapolis Center
Thu 05:25:07 PM 40.0081 -82.9356 222° Southwest 161 185 8,000  Descending Indianapolis Center
Thu 05:26:14 PM 39.9728 -82.9761 221° Southwest 159 183 8,100  Climbing Indianapolis Center
Thu 05:27:15 PM 39.9353 -83.0167 220° Southwest 164 189 8,000  Descending Indianapolis Center
Thu 05:28:21 PM 39.9028 -83.0558 223° Southwest 165 190 8,100  Climbing Indianapolis Center
Thu 05:29:23 PM 39.8642 -83.1006 222° Southwest 167 192 8,000  Descending Indianapolis Center
Thu 05:30:24 PM 39.8286 -83.1411 221° Southwest 165 190 8,100  Climbing Indianapolis Center
Thu 05:31:25 PM 39.7933 -83.1817 221° Southwest 166 191 8,000  Descending Indianapolis Center
Thu 05:33:32 PM 39.7228 -83.2617 221° Southwest 162 186 8,100 32 Climbing Indianapolis Center
Thu 05:34:34 PM 39.6869 -83.3031 222° Southwest 162 186 8,100  Level Indianapolis Center
Thu 05:35:28 PM 39.6561 -83.3361 220° Southwest 163 188 8,100 -97 Level Indianapolis Center
Thu 05:36:38 PM 39.6172 -83.3775 219° Southwest 164 189 7,900 -91 Descending Indianapolis Center
Thu 05:37:40 PM 39.5811 -83.4158 219° Southwest 165 190 7,900  Level Indianapolis Center
Thu 05:38:42 PM 39.5456 -83.4550 220° Southwest 165 190 7,900  Level Indianapolis Center
Thu 05:39:44 PM 39.5094 -83.4908 217° Southwest 163 188 7,900 48 Level Indianapolis Center
Thu 05:40:46 PM 39.4756 -83.5300 222° Southwest 162 186 8,000 48 Climbing Indianapolis Center
Thu 05:41:48 PM 39.4350 -83.5753 221° Southwest 163 188 8,000  Level Indianapolis Center
Thu 05:42:50 PM 39.3986 -83.6169 222° Southwest 169 194 8,000  Level Indianapolis Center
Thu 05:43:52 PM 39.3628 -83.6547 219° Southwest 167 192 8,000  Level Indianapolis Center
Thu 05:44:54 PM 39.3281 -83.6931 221° Southwest 164 189 8,000  Level Indianapolis Center
Thu 05:45:56 PM 39.2922 -83.7328 221° Southwest 166 191 8,000  Level Indianapolis Center
Thu 05:46:58 PM 39.2564 -83.7714 220° Southwest 167 192 8,000  Level Indianapolis Center
Thu 05:48:00 PM 39.2222 -83.8086 220° Southwest 162 186 8,000  Level Indianapolis Center
Thu 05:49:02 PM 39.1822 -83.8569 223° Southwest 166 191 8,000  Level Indianapolis Center
Thu 05:50:04 PM 39.1472 -83.8969 222° Southwest 167 192 8,000  Level Indianapolis Center
Thu 05:51:06 PM 39.1119 -83.9369 221° Southwest 166 191 8,000  Level Indianapolis Center
Thu 05:52:08 PM 39.0775 -83.9767 222° Southwest 165 190 8,000  Level Indianapolis Center
Thu 05:53:10 PM 39.0411 -84.0153 219° Southwest 168 193 8,000  Level Indianapolis Center
Thu 05:54:12 PM 39.0050 -84.0536 220° Southwest 168 193 8,000  Level Indianapolis Center
Thu 05:55:14 PM 38.9686 -84.0908 218° Southwest 167 192 8,000  Level Indianapolis Center
Thu 05:56:16 PM 38.9328 -84.1289 220° Southwest 166 191 8,000  Level Indianapolis Center
Thu 05:57:18 PM 38.8903 -84.1736 219° Southwest 167 192 8,000  Level Indianapolis Center
Thu 05:58:20 PM 38.8544 -84.2111 219° Southwest 165 190 8,000  Level Indianapolis Center
Thu 05:59:22 PM 38.8189 -84.2503 221° Southwest 166 191 8,000  Level Indianapolis Center
Thu 06:00:24 PM 38.7833 -84.2878 219° Southwest 165 190 8,000  Level Indianapolis Center
Thu 06:01:26 PM 38.7469 -84.3244 218° Southwest 165 190 8,000  Level Indianapolis Center
Thu 06:02:27 PM 38.7122 -84.3617 220° Southwest 164 189 8,000  Level Indianapolis Center
Thu 06:03:29 PM 38.6764 -84.3986 219° Southwest 164 189 8,000  Level Indianapolis Center
Thu 06:04:31 PM 38.6372 -84.4419 221° Southwest 162 186 8,000  Level Indianapolis Center
Thu 06:05:33 PM 38.6014 -84.4769 217° Southwest 162 186 8,000  Level Indianapolis Center
Thu 06:06:35 PM 38.5658 -84.5144 220° Southwest 164 189 8,000  Level Indianapolis Center
Thu 06:07:37 PM 38.5311 -84.5514 220° Southwest 163 188 8,000  Level Indianapolis Center
Thu 06:08:38 PM 38.4964 -84.5889 220° Southwest 164 189 8,000  Level Indianapolis Center
Thu 06:09:40 PM 38.4542 -84.6317 218° Southwest 166 191 8,000  Level Indianapolis Center
Thu 06:10:42 PM 38.4186 -84.6692 220° Southwest 167 192 8,000  Level Indianapolis Center
Thu 06:11:44 PM 38.3828 -84.7056 219° Southwest 166 191 8,000  Level Indianapolis Center
Thu 06:12:45 PM 38.3467 -84.7425 219° Southwest 166 191 8,000  Level Indianapolis Center
Thu 06:13:47 PM 38.3097 -84.7792 218° Southwest 167 192 8,000  Level Indianapolis Center
Thu 06:14:49 PM 38.2728 -84.8142 217° Southwest 167 192 8,000  Level Indianapolis Center
Thu 06:15:50 PM 38.2381 -84.8514 220° Southwest 165 190 8,000  Level Indianapolis Center
Thu 06:16:52 PM 38.1972 -84.8933 219° Southwest 162 186 8,000  Level Indianapolis Center
Thu 06:17:54 PM 38.1614 -84.9283 218° Southwest 162 186 8,000  Level Indianapolis Center
Thu 06:18:55 PM 38.1269 -84.9656 220° Southwest 163 188 8,000  Level Indianapolis Center
Thu 06:19:57 PM 38.0903 -85.0031 219° Southwest 164 189 8,000 48 Level Indianapolis Center
Thu 06:20:59 PM 38.0417 -85.0086 185° South 175 201 8,100  Climbing Indianapolis Center
Thu 06:22:00 PM 37.9900 -85.0061 178° South 184 212 8,000 -49 Descending Indianapolis Center
Thu 06:23:02 PM 37.9269 -85.0014 177° South 190 219 8,000  Level Indianapolis Center
Thu 06:24:04 PM 37.8828 -85.0275 205° Southwest 184 212 8,000  Level Indianapolis Center
Thu 06:25:05 PM 37.8453 -85.0681 221° Southwest 177 204 8,000  Level Indianapolis Center
Thu 06:26:07 PM 37.8103 -85.1078 222° Southwest 173 199 8,000  Level Indianapolis Center
Thu 06:27:09 PM 37.7758 -85.1489 223° Southwest 172 198 8,000  Level Indianapolis Center
Thu 06:28:10 PM 37.7408 -85.1892 222° Southwest 170 196 8,000  Level Indianapolis Center
Thu 06:29:12 PM 37.7050 -85.2272 220° Southwest 169 194 8,000  Level Indianapolis Center
Thu 06:30:14 PM 37.6644 -85.2728 222° Southwest 167 192 8,000  Level Indianapolis Center
Thu 06:31:15 PM 37.6286 -85.3117 221° Southwest 169 194 8,000  Level Indianapolis Center
Thu 06:32:17 PM 37.5922 -85.3519 221° Southwest 172 198 8,000  Level Indianapolis Center
Thu 06:33:19 PM 37.5553 -85.3917 220° Southwest 174 200 8,000  Level Indianapolis Center
Thu 06:34:21 PM 37.5197 -85.4306 221° Southwest 170 196 8,000  Level Indianapolis Center
Thu 06:35:22 PM 37.4819 -85.4708 220° Southwest 176 203 8,000  Level Indianapolis Center
Thu 06:36:24 PM 37.4397 -85.5164 221° Southwest 172 198 8,000  Level Indianapolis Center
Thu 06:37:26 PM 37.4069 -85.5514 220° Southwest 178 205 8,000  Level Indianapolis Center
Thu 06:38:28 PM 37.3694 -85.5889 218° Southwest 173 199 8,000  Level Indianapolis Center
Thu 06:39:30 PM 37.3236 -85.6378 220° Southwest 179 206 8,000  Level Indianapolis Center
Thu 06:40:31 PM 37.2839 -85.6825 222° Southwest 185 213 8,000  Level Indianapolis Center
Thu 06:41:33 PM 37.2447 -85.7233 220° Southwest 182 209 8,000  Level Indianapolis Center
Thu 06:42:35 PM 37.2072 -85.7647 221° Southwest 179 206 8,000  Level Indianapolis Center
Thu 06:43:37 PM 37.1706 -85.8069 223° Southwest 178 205 8,000  Level Indianapolis Center
Thu 06:44:39 PM 37.1347 -85.8467 221° Southwest 172 198 8,000  Level Indianapolis Center
Thu 06:45:41 PM 37.0972 -85.8889 222° Southwest 178 205 8,000  Level Indianapolis Center
Thu 06:46:43 PM 37.0622 -85.9300 223° Southwest 172 198 8,000  Level Indianapolis Center
Thu 06:47:45 PM 37.0261 -85.9731 224° Southwest 176 203 8,000 -97 Level Indianapolis Center
Thu 06:48:47 PM 36.9844 -86.0242 224° Southwest 178 205 7,800 -439 Descending Indianapolis Center
Thu 06:49:48 PM 36.9428 -86.0708 222° Southwest 192 221 7,100 -585 Descending Indianapolis Center
Thu 06:50:50 PM 36.9058 -86.1200 227° Southwest 194 223 6,600 -732 Descending Indianapolis Center
Thu 06:51:51 PM 36.8675 -86.1739 228° Southwest 195 224 5,600 -893 Descending Memphis Center
Thu 06:52:51 PM 36.8356 -86.2147 226° Southwest 190 219 4,800 -800 Descending Memphis Center
Thu 06:53:51 PM 36.8014 -86.2553 224° Southwest 184 212 4,000 -400 Descending Memphis Center
Thu 06:54:51 PM 36.7694 -86.2931 223° Southwest 173 199 4,000  Level Memphis Center
Thu 06:55:51 PM 36.7394 -86.3308 225° Southwest 166 191 4,000  Level Memphis Center
Thu 06:56:51 PM 36.7092 -86.3608 218° Southwest 160 184 4,000 -50 Level Memphis Center
Thu 06:57:51 PM 36.6811 -86.3958 225° Southwest 150 173 3,900  Descending Memphis Center
Thu 06:58:51 PM 36.6508 -86.4283 221° Southwest 150 173 4,000 50 Climbing Memphis Center
Thu 06:59:51 PM 36.6186 -86.4636 221° Southwest 150 173 4,000  Level Memphis Center
Thu 07:00:51 PM 36.5819 -86.4964 216° Southwest 150 173 4,000  Level Memphis Center
Thu 07:01:51 PM 36.5639 -86.5178 224° Southwest 150 173 4,000  Level Memphis Center
Thu 07:03:51 PM 36.5639 -86.5178 122° Southeast 150 173 4,000  Level Memphis Center
Thu 07:05:51 PM 36.5639 -86.5178 122° Southeast 150 173 4,000  Level Memphis Center
Thu 07:07:51 PM 36.5639 -86.5178 122° Southeast 150 173 4,000  Level Memphis Center

Login

Don't have an account? Register now (free) for customized features, flight alerts, and more!